createdAt,value
2023-04-10T00:03:59.332Z,82.97
2023-04-10T00:09:01.528Z,83.46
2023-04-10T00:14:03.003Z,84.02
2023-04-10T00:19:04.498Z,83.34
2023-04-10T00:24:06.141Z,83.89
2023-04-10T00:29:08.233Z,82.81
2023-04-10T00:34:09.833Z,83.92
2023-04-10T00:39:11.511Z,84.08
2023-04-10T00:44:13.019Z,82.04
2023-04-10T00:49:14.744Z,81.77
2023-04-10T00:54:16.806Z,84.44
2023-04-10T00:59:18.958Z,82.88
2023-04-10T01:04:22.420Z,82.83
2023-04-10T01:09:36.798Z,84.45
2023-04-10T01:14:49.392Z,84.23
2023-04-10T01:20:01.295Z,84.13
2023-04-10T01:25:21.750Z,84.83
2023-04-10T01:30:23.464Z,83.95
2023-04-10T01:35:27.021Z,84.30
2023-04-10T01:40:29.761Z,84.39
2023-04-10T01:45:31.804Z,84.65
2023-04-10T01:50:34.757Z,85.29
2023-04-10T01:55:38.302Z,84.86
2023-04-10T02:00:41.894Z,84.70
2023-04-10T02:05:52.449Z,85.24
2023-04-10T02:11:03.501Z,85.71
2023-04-10T02:16:09.140Z,84.16
2023-04-10T02:21:11.589Z,84.82
2023-04-10T02:26:13.104Z,84.57
2023-04-10T02:31:14.678Z,84.04
2023-04-10T02:36:16.389Z,81.67
2023-04-10T02:41:17.956Z,83.35
2023-04-10T02:46:19.489Z,84.08
2023-04-10T02:51:21.264Z,82.66
2023-04-10T02:56:22.940Z,80.42
2023-04-10T03:01:24.437Z,80.22
2023-04-10T03:06:28.891Z,80.15
2023-04-10T03:11:30.680Z,80.75
2023-04-10T03:16:32.276Z,84.13
2023-04-10T03:21:34.058Z,86.00
2023-04-10T03:26:35.693Z,85.45
2023-04-10T03:31:37.506Z,86.95
2023-04-10T03:36:39.060Z,86.21
2023-04-10T03:41:40.588Z,87.24
2023-04-10T03:46:42.099Z,86.28
2023-04-10T03:51:43.589Z,85.47
2023-04-10T03:56:45.201Z,86.56
2023-04-10T04:01:46.947Z,87.12
2023-04-10T04:06:48.763Z,87.06
2023-04-10T04:11:50.343Z,86.65
2023-04-10T04:16:51.968Z,85.60
2023-04-10T04:21:53.446Z,85.74
2023-04-10T04:26:56.462Z,86.17
2023-04-10T04:31:58.038Z,85.77
2023-04-10T04:36:59.609Z,85.00
2023-04-10T04:42:01.477Z,84.79
2023-04-10T04:47:02.974Z,85.12
2023-04-10T04:52:04.631Z,83.78
2023-04-10T04:57:07.202Z,83.29
2023-04-10T05:02:09.140Z,83.98
2023-04-10T05:07:11.173Z,84.04
2023-04-10T05:12:12.710Z,83.40
2023-04-10T05:17:15.503Z,83.33
2023-04-10T05:22:18.505Z,83.77
2023-04-10T05:27:20.439Z,83.24
2023-04-10T05:32:21.959Z,82.40
2023-04-10T05:37:23.500Z,82.38
2023-04-10T05:42:25.089Z,82.51
2023-04-10T05:47:26.632Z,81.90
2023-04-10T05:52:28.236Z,81.71
2023-04-10T05:57:30.813Z,81.90
2023-04-10T06:02:33.219Z,82.20
2023-04-10T06:07:34.948Z,81.98
2023-04-10T06:12:36.964Z,81.67
2023-04-10T06:17:43.597Z,81.26
2023-04-10T06:22:45.421Z,80.78
2023-04-10T06:27:47.039Z,80.76
2023-04-10T06:32:48.538Z,80.53
2023-04-10T06:37:50.085Z,80.33
2023-04-10T06:42:51.579Z,80.97
2023-04-10T06:47:53.534Z,80.44
2023-04-10T06:52:56.462Z,80.17
2023-04-10T06:57:57.942Z,80.10
2023-04-10T07:02:59.468Z,79.84
2023-04-10T07:08:01.120Z,79.34
2023-04-10T07:13:03.000Z,78.81
2023-04-10T07:18:06.318Z,77.83
2023-04-10T07:23:07.863Z,77.51
2023-04-10T07:28:09.385Z,77.16
2023-04-10T07:33:11.244Z,76.56
2023-04-10T07:38:13.376Z,75.92
2023-04-10T07:43:14.922Z,74.43
2023-04-10T07:48:16.786Z,73.60
2023-04-10T07:53:18.329Z,73.77
2023-04-10T07:58:19.914Z,73.21
2023-04-10T08:03:21.598Z,73.01
2023-04-10T08:08:23.237Z,72.88
2023-04-10T08:13:24.708Z,72.48
2023-04-10T08:18:26.398Z,70.92
2023-04-10T08:23:27.973Z,70.52
2023-04-10T08:28:29.444Z,68.98
2023-04-10T08:33:31.627Z,67.87
2023-04-10T08:38:33.119Z,67.62
2023-04-10T08:43:35.499Z,66.50
2023-04-10T08:48:45.759Z,65.20
2023-04-10T08:53:51.348Z,64.62
2023-04-10T08:58:53.415Z,63.06
2023-04-10T09:03:55.216Z,63.32
2023-04-10T09:08:57.772Z,62.65
2023-04-10T09:13:59.291Z,62.49
2023-04-10T09:19:03.453Z,61.33
2023-04-10T09:24:06.609Z,60.48
2023-04-10T09:29:10.489Z,59.67
2023-04-10T09:34:16.816Z,61.09
2023-04-10T09:39:18.857Z,59.99
2023-04-10T09:44:32.291Z,60.09
2023-04-10T09:49:48.601Z,59.00
2023-04-10T09:54:50.330Z,58.08
2023-04-10T09:59:57.368Z,58.64
2023-04-10T10:05:02.633Z,56.83
2023-04-10T10:10:07.337Z,55.62
2023-04-10T10:15:44.673Z,55.93
2023-04-10T10:20:47.299Z,54.62
2023-04-10T10:25:50.075Z,54.80
2023-04-10T10:30:52.668Z,52.92
2023-04-10T10:35:54.750Z,52.65
2023-04-10T10:41:25.886Z,52.36
2023-04-10T10:47:15.806Z,50.79
2023-04-10T10:52:39.118Z,50.72
2023-04-10T10:57:46.592Z,50.48
2023-04-10T11:03:07.259Z,50.02
2023-04-10T11:08:09.306Z,49.21
2023-04-10T11:13:18.422Z,49.13
2023-04-10T11:18:21.033Z,48.79
2023-04-10T11:23:22.549Z,49.06
2023-04-10T11:28:33.293Z,49.24
2023-04-10T11:33:34.988Z,49.54
2023-04-10T11:38:37.341Z,49.64
2023-04-10T11:43:39.407Z,48.84
2023-04-10T11:48:41.254Z,48.93
2023-04-10T11:53:42.994Z,47.93
2023-04-10T11:58:45.066Z,47.78
2023-04-10T12:03:46.678Z,47.34
2023-04-10T12:08:51.417Z,44.15
2023-04-10T12:13:54.868Z,47.42
2023-04-10T12:18:57.237Z,50.32
2023-04-10T12:23:59.319Z,51.64
2023-04-10T12:29:00.879Z,48.61
2023-04-10T12:34:05.412Z,47.87
2023-04-10T12:39:22.642Z,44.29
2023-04-10T12:44:24.176Z,45.08
2023-04-10T12:49:25.670Z,46.00
2023-04-10T12:54:33.323Z,47.60
2023-04-10T12:59:34.927Z,48.43
2023-04-10T13:04:36.798Z,47.96
2023-04-10T13:09:39.093Z,47.35
2023-04-10T13:14:40.685Z,46.40
2023-04-10T13:19:42.165Z,43.15
2023-04-10T13:24:44.212Z,43.11
2023-04-10T13:29:46.148Z,44.45
2023-04-10T13:34:47.625Z,44.93
2023-04-10T13:39:49.123Z,46.42
2023-04-10T13:44:50.615Z,47.22
2023-04-10T13:49:52.132Z,47.29
2023-04-10T13:54:53.676Z,47.93
2023-04-10T13:59:55.635Z,48.21
2023-04-10T14:04:57.214Z,48.05
2023-04-10T14:10:00.475Z,47.87
2023-04-10T14:15:02.115Z,46.65
2023-04-10T14:20:04.300Z,45.98
2023-04-10T14:25:13.287Z,47.47
2023-04-10T14:30:15.578Z,47.87
2023-04-10T14:35:17.113Z,47.29
2023-04-10T14:40:18.664Z,47.61
2023-04-10T14:45:20.198Z,47.35
2023-04-10T14:50:21.829Z,47.62
2023-04-10T14:55:24.826Z,47.87
2023-04-10T15:00:33.161Z,47.86
2023-04-10T15:05:34.746Z,47.77
2023-04-10T15:10:36.273Z,47.41
2023-04-10T15:15:37.753Z,46.93
2023-04-10T15:20:39.244Z,47.13
2023-04-10T15:25:40.745Z,47.72
2023-04-10T15:30:45.330Z,47.64
2023-04-10T15:35:51.730Z,47.44
2023-04-10T15:40:53.289Z,47.05
2023-04-10T15:45:54.958Z,47.12
2023-04-10T15:50:56.593Z,47.14
2023-04-10T15:55:58.509Z,47.25
2023-04-10T16:01:00.813Z,46.99
2023-04-10T16:06:02.349Z,47.21
2023-04-10T16:11:03.960Z,47.19
2023-04-10T16:16:08.625Z,47.26
2023-04-10T16:21:12.961Z,47.47
2023-04-10T16:26:14.589Z,47.44
2023-04-10T16:31:16.543Z,47.36
2023-04-10T16:36:18.183Z,48.22
2023-04-10T16:41:21.081Z,47.85
2023-04-10T16:46:22.739Z,47.30
2023-04-10T16:51:24.896Z,48.04
2023-04-10T16:56:27.018Z,48.65
2023-04-10T17:01:28.680Z,48.71
2023-04-10T17:06:31.298Z,49.57
2023-04-10T17:11:32.880Z,50.51
2023-04-10T17:16:34.651Z,51.17
2023-04-10T17:21:36.193Z,51.80
2023-04-10T17:26:37.836Z,52.77
2023-04-10T17:31:39.371Z,52.27
2023-04-10T17:36:42.315Z,53.47
2023-04-10T17:41:43.920Z,53.66
2023-04-10T17:46:46.444Z,54.10
2023-04-10T17:51:48.474Z,54.63
2023-04-10T17:56:52.779Z,55.04
2023-04-10T18:01:54.851Z,56.04
2023-04-10T18:06:56.529Z,56.39
2023-04-10T18:11:58.018Z,56.52
2023-04-10T18:16:59.530Z,56.80
2023-04-10T18:22:01.035Z,56.96
2023-04-10T18:27:03.310Z,58.62
2023-04-10T18:32:07.565Z,58.41
2023-04-10T18:37:10.033Z,58.44
2023-04-10T18:42:11.716Z,59.00
2023-04-10T18:47:13.751Z,59.12
2023-04-10T18:52:15.264Z,60.11
2023-04-10T18:57:16.745Z,59.98
2023-04-10T19:02:18.624Z,60.34
2023-04-10T19:07:20.472Z,60.59
2023-04-10T19:12:21.958Z,61.60
2023-04-10T19:17:24.974Z,62.33
2023-04-10T19:22:26.647Z,62.24
2023-04-10T19:27:28.473Z,61.94
2023-04-10T19:32:30.022Z,62.00
2023-04-10T19:37:31.552Z,62.20
2023-04-10T19:42:36.641Z,62.33
2023-04-10T19:47:38.354Z,62.80
2023-04-10T19:52:39.941Z,63.06
2023-04-10T19:57:41.480Z,63.51
2023-04-10T20:02:43.500Z,63.42
2023-04-10T20:07:45.433Z,64.16
2023-04-10T20:12:46.970Z,64.74
2023-04-10T20:17:48.556Z,64.75
2023-04-10T20:22:50.194Z,64.51
2023-04-10T20:27:51.725Z,64.79
2023-04-10T20:32:53.250Z,64.65
2023-04-10T20:37:54.900Z,64.79
2023-04-10T20:42:56.396Z,65.75
2023-04-10T20:47:58.017Z,67.10
2023-04-10T20:52:59.838Z,68.71
2023-04-10T20:58:01.308Z,67.10
2023-04-10T21:03:03.005Z,67.98
2023-04-10T21:08:04.800Z,67.69
2023-04-10T21:13:06.315Z,66.73
2023-04-10T21:18:08.020Z,66.57
2023-04-10T21:23:09.519Z,66.98
2023-04-10T21:28:10.983Z,66.61
2023-04-10T21:33:12.743Z,66.61
2023-04-10T21:38:14.655Z,67.24
2023-04-10T21:43:16.179Z,67.45
2023-04-10T21:48:19.574Z,67.29
2023-04-10T21:53:21.312Z,67.71
2023-04-10T21:58:22.801Z,68.08
2023-04-10T22:03:24.475Z,72.26
2023-04-10T22:08:26.301Z,68.83
2023-04-10T22:13:31.210Z,68.71
2023-04-10T22:18:33.347Z,69.77
2023-04-10T22:23:34.860Z,69.06
2023-04-10T22:28:36.386Z,69.02
2023-04-10T22:33:37.984Z,68.95
2023-04-10T22:38:39.588Z,69.22
2023-04-10T22:43:41.063Z,69.32
2023-04-10T22:48:43.149Z,69.75
2023-04-10T22:53:45.649Z,69.51
2023-04-10T22:58:47.164Z,69.89
2023-04-10T23:03:52.842Z,70.43
2023-04-10T23:08:54.859Z,69.98
2023-04-10T23:13:56.631Z,69.85
2023-04-10T23:18:58.230Z,70.23
2023-04-10T23:23:59.714Z,71.01
2023-04-10T23:29:01.184Z,71.15
2023-04-10T23:34:03.429Z,71.85
2023-04-10T23:39:04.929Z,71.16
2023-04-10T23:44:06.468Z,70.99
2023-04-10T23:49:08.034Z,71.10
2023-04-10T23:54:09.542Z,71.16
2023-04-10T23:59:11.021Z,70.94
